sensor_id;sensor_type;location;lat;lon;timestamp;P1;durP1;ratioP1;P2;durP2;ratioP2
68608;SDS011;55581;46.718;7.690;2023-05-20T00:02:18;12.30;;;5.70;;
68608;SDS011;55581;46.718;7.690;2023-05-20T00:04:43;9.20;;;5.40;;
68608;SDS011;55581;46.718;7.690;2023-05-20T00:07:10;9.80;;;5.43;;
68608;SDS011;55581;46.718;7.690;2023-05-20T00:09:37;8.90;;;5.77;;
68608;SDS011;55581;46.718;7.690;2023-05-20T00:12:03;11.50;;;5.97;;
68608;SDS011;55581;46.718;7.690;2023-05-20T00:14:28;11.80;;;6.45;;
68608;SDS011;55581;46.718;7.690;2023-05-20T00:16:54;14.97;;;6.50;;
68608;SDS011;55581;46.718;7.690;2023-05-20T00:19:19;10.23;;;5.50;;
68608;SDS011;55581;46.718;7.690;2023-05-20T00:21:45;8.77;;;5.18;;
68608;SDS011;55581;46.718;7.690;2023-05-20T00:24:10;12.03;;;6.67;;
68608;SDS011;55581;46.718;7.690;2023-05-20T00:26:37;12.32;;;6.38;;
68608;SDS011;55581;46.718;7.690;2023-05-20T00:29:03;11.77;;;6.17;;
68608;SDS011;55581;46.718;7.690;2023-05-20T00:31:28;12.37;;;6.27;;
68608;SDS011;55581;46.718;7.690;2023-05-20T00:33:56;11.18;;;5.72;;
68608;SDS011;55581;46.718;7.690;2023-05-20T00:36:22;11.40;;;5.97;;
68608;SDS011;55581;46.718;7.690;2023-05-20T00:38:50;12.77;;;7.03;;
68608;SDS011;55581;46.718;7.690;2023-05-20T00:41:15;10.97;;;6.30;;
68608;SDS011;55581;46.718;7.690;2023-05-20T00:43:41;15.45;;;6.43;;
68608;SDS011;55581;46.718;7.690;2023-05-20T00:46:06;13.87;;;6.00;;
68608;SDS011;55581;46.718;7.690;2023-05-20T00:48:35;10.07;;;5.87;;
68608;SDS011;55581;46.718;7.690;2023-05-20T00:51:05;9.93;;;5.90;;
68608;SDS011;55581;46.718;7.690;2023-05-20T00:53:33;13.70;;;5.57;;
68608;SDS011;55581;46.718;7.690;2023-05-20T00:56:00;12.10;;;5.30;;
68608;SDS011;55581;46.718;7.690;2023-05-20T00:58:26;8.47;;;5.20;;
68608;SDS011;55581;46.718;7.690;2023-05-20T01:00:53;11.50;;;6.05;;
68608;SDS011;55581;46.718;7.690;2023-05-20T01:03:19;11.73;;;5.73;;
68608;SDS011;55581;46.718;7.690;2023-05-20T01:05:45;10.32;;;5.50;;
68608;SDS011;55581;46.718;7.690;2023-05-20T01:08:10;9.87;;;5.77;;
68608;SDS011;55581;46.718;7.690;2023-05-20T01:10:37;12.68;;;5.63;;
68608;SDS011;55581;46.718;7.690;2023-05-20T01:13:07;10.75;;;5.78;;
68608;SDS011;55581;46.718;7.690;2023-05-20T01:15:35;13.77;;;5.80;;
68608;SDS011;55581;46.718;7.690;2023-05-20T01:18:04;14.77;;;6.25;;
68608;SDS011;55581;46.718;7.690;2023-05-20T01:20:34;14.05;;;5.57;;
68608;SDS011;55581;46.718;7.690;2023-05-20T01:23:01;11.93;;;6.05;;
68608;SDS011;55581;46.718;7.690;2023-05-20T01:25:27;9.82;;;4.85;;
68608;SDS011;55581;46.718;7.690;2023-05-20T01:27:55;13.73;;;5.53;;
68608;SDS011;55581;46.718;7.690;2023-05-20T01:30:21;10.48;;;5.47;;
68608;SDS011;55581;46.718;7.690;2023-05-20T01:33:03;11.38;;;5.93;;
68608;SDS011;55581;46.718;7.690;2023-05-20T01:35:31;13.55;;;5.40;;
68608;SDS011;55581;46.718;7.690;2023-05-20T01:37:58;9.68;;;5.10;;
68608;SDS011;55581;46.718;7.690;2023-05-20T01:40:24;13.13;;;5.53;;
68608;SDS011;55581;46.718;7.690;2023-05-20T01:42:51;13.48;;;5.47;;
68608;SDS011;55581;46.718;7.690;2023-05-20T01:45:19;9.85;;;5.90;;
68608;SDS011;55581;46.718;7.690;2023-05-20T01:47:45;10.18;;;5.78;;
68608;SDS011;55581;46.718;7.690;2023-05-20T01:50:10;10.37;;;5.60;;
68608;SDS011;55581;46.718;7.690;2023-05-20T01:52:37;10.15;;;5.45;;
68608;SDS011;55581;46.718;7.690;2023-05-20T01:55:03;11.33;;;6.37;;
68608;SDS011;55581;46.718;7.690;2023-05-20T01:57:28;11.52;;;5.40;;
68608;SDS011;55581;46.718;7.690;2023-05-20T01:59:56;10.10;;;5.30;;
68608;SDS011;55581;46.718;7.690;2023-05-20T02:02:21;10.65;;;5.38;;
68608;SDS011;55581;46.718;7.690;2023-05-20T02:04:47;10.73;;;5.67;;
68608;SDS011;55581;46.718;7.690;2023-05-20T02:07:14;10.80;;;5.20;;
68608;SDS011;55581;46.718;7.690;2023-05-20T02:09:45;10.50;;;5.40;;
68608;SDS011;55581;46.718;7.690;2023-05-20T02:12:12;9.55;;;5.35;;
68608;SDS011;55581;46.718;7.690;2023-05-20T02:14:44;10.77;;;5.82;;
68608;SDS011;55581;46.718;7.690;2023-05-20T02:17:11;10.65;;;5.13;;
68608;SDS011;55581;46.718;7.690;2023-05-20T02:19:38;10.30;;;5.32;;
68608;SDS011;55581;46.718;7.690;2023-05-20T02:22:03;11.57;;;5.83;;
68608;SDS011;55581;46.718;7.690;2023-05-20T02:24:30;12.63;;;5.70;;
68608;SDS011;55581;46.718;7.690;2023-05-20T02:26:55;8.87;;;5.30;;
68608;SDS011;55581;46.718;7.690;2023-05-20T02:29:22;11.80;;;5.32;;
68608;SDS011;55581;46.718;7.690;2023-05-20T02:31:48;9.85;;;5.53;;
68608;SDS011;55581;46.718;7.690;2023-05-20T02:34:15;9.30;;;4.90;;
68608;SDS011;55581;46.718;7.690;2023-05-20T02:36:41;9.10;;;5.10;;
68608;SDS011;55581;46.718;7.690;2023-05-20T02:39:09;10.27;;;5.10;;
68608;SDS011;55581;46.718;7.690;2023-05-20T02:41:36;11.32;;;5.53;;
68608;SDS011;55581;46.718;7.690;2023-05-20T02:44:02;11.87;;;6.50;;
68608;SDS011;55581;46.718;7.690;2023-05-20T02:46:27;9.93;;;5.33;;
68608;SDS011;55581;46.718;7.690;2023-05-20T02:48:52;9.20;;;5.53;;
68608;SDS011;55581;46.718;7.690;2023-05-20T02:51:18;11.50;;;5.03;;
68608;SDS011;55581;46.718;7.690;2023-05-20T02:53:43;9.63;;;5.80;;
68608;SDS011;55581;46.718;7.690;2023-05-20T02:56:09;10.65;;;6.13;;
68608;SDS011;55581;46.718;7.690;2023-05-20T02:58:35;10.90;;;5.07;;
68608;SDS011;55581;46.718;7.690;2023-05-20T03:01:01;9.82;;;5.32;;
68608;SDS011;55581;46.718;7.690;2023-05-20T03:03:27;9.13;;;4.82;;
68608;SDS011;55581;46.718;7.690;2023-05-20T03:05:52;10.07;;;5.50;;
68608;SDS011;55581;46.718;7.690;2023-05-20T03:08:19;12.20;;;6.03;;
68608;SDS011;55581;46.718;7.690;2023-05-20T03:10:46;10.80;;;5.63;;
68608;SDS011;55581;46.718;7.690;2023-05-20T03:13:12;9.47;;;5.20;;
68608;SDS011;55581;46.718;7.690;2023-05-20T03:15:39;11.45;;;5.75;;
68608;SDS011;55581;46.718;7.690;2023-05-20T03:18:05;10.13;;;6.07;;
68608;SDS011;55581;46.718;7.690;2023-05-20T03:20:33;11.70;;;6.13;;
68608;SDS011;55581;46.718;7.690;2023-05-20T03:23:03;12.93;;;6.20;;
68608;SDS011;55581;46.718;7.690;2023-05-20T03:25:28;10.65;;;6.15;;
68608;SDS011;55581;46.718;7.690;2023-05-20T03:27:54;10.90;;;6.28;;
68608;SDS011;55581;46.718;7.690;2023-05-20T03:30:24;10.20;;;5.93;;
68608;SDS011;55581;46.718;7.690;2023-05-20T03:32:50;9.90;;;5.90;;
68608;SDS011;55581;46.718;7.690;2023-05-20T03:35:18;12.70;;;6.17;;
68608;SDS011;55581;46.718;7.690;2023-05-20T03:37:44;10.82;;;5.72;;
68608;SDS011;55581;46.718;7.690;2023-05-20T03:40:09;12.13;;;6.40;;
68608;SDS011;55581;46.718;7.690;2023-05-20T03:42:35;11.70;;;5.80;;
68608;SDS011;55581;46.718;7.690;2023-05-20T03:45:02;10.23;;;5.63;;
68608;SDS011;55581;46.718;7.690;2023-05-20T03:47:29;14.45;;;6.25;;
68608;SDS011;55581;46.718;7.690;2023-05-20T03:49:55;9.57;;;5.50;;
68608;SDS011;55581;46.718;7.690;2023-05-20T03:52:20;9.18;;;5.55;;
68608;SDS011;55581;46.718;7.690;2023-05-20T03:54:46;14.37;;;6.93;;
68608;SDS011;55581;46.718;7.690;2023-05-20T03:57:17;11.40;;;6.18;;
68608;SDS011;55581;46.718;7.690;2023-05-20T03:59:43;13.57;;;6.50;;
68608;SDS011;55581;46.718;7.690;2023-05-20T04:02:09;12.20;;;5.57;;
68608;SDS011;55581;46.718;7.690;2023-05-20T04:04:34;13.57;;;6.53;;
68608;SDS011;55581;46.718;7.690;2023-05-20T04:07:00;11.80;;;6.20;;
68608;SDS011;55581;46.718;7.690;2023-05-20T04:09:25;10.77;;;5.87;;
68608;SDS011;55581;46.718;7.690;2023-05-20T04:11:52;12.20;;;6.25;;
68608;SDS011;55581;46.718;7.690;2023-05-20T04:14:19;13.33;;;6.17;;
68608;SDS011;55581;46.718;7.690;2023-05-20T04:16:48;11.48;;;6.00;;
68608;SDS011;55581;46.718;7.690;2023-05-20T04:19:14;10.25;;;5.47;;
68608;SDS011;55581;46.718;7.690;2023-05-20T04:21:43;12.07;;;5.90;;
68608;SDS011;55581;46.718;7.690;2023-05-20T04:24:11;13.23;;;5.93;;
68608;SDS011;55581;46.718;7.690;2023-05-20T04:26:37;12.97;;;6.30;;
68608;SDS011;55581;46.718;7.690;2023-05-20T04:29:02;12.85;;;6.80;;
68608;SDS011;55581;46.718;7.690;2023-05-20T04:31:28;10.33;;;5.63;;
68608;SDS011;55581;46.718;7.690;2023-05-20T04:33:55;12.15;;;6.45;;
68608;SDS011;55581;46.718;7.690;2023-05-20T04:36:21;10.27;;;5.47;;
68608;SDS011;55581;46.718;7.690;2023-05-20T04:38:55;10.90;;;5.13;;
68608;SDS011;55581;46.718;7.690;2023-05-20T04:41:23;10.77;;;5.60;;
68608;SDS011;55581;46.718;7.690;2023-05-20T04:43:49;13.90;;;6.17;;
68608;SDS011;55581;46.718;7.690;2023-05-20T04:46:15;11.48;;;6.30;;
68608;SDS011;55581;46.718;7.690;2023-05-20T04:48:40;9.43;;;5.05;;
68608;SDS011;55581;46.718;7.690;2023-05-20T04:51:07;10.67;;;5.60;;
68608;SDS011;55581;46.718;7.690;2023-05-20T04:53:33;11.60;;;6.93;;
68608;SDS011;55581;46.718;7.690;2023-05-20T04:55:59;13.02;;;5.93;;
68608;SDS011;55581;46.718;7.690;2023-05-20T04:58:25;12.83;;;6.40;;
68608;SDS011;55581;46.718;7.690;2023-05-20T05:00:51;10.23;;;6.27;;
68608;SDS011;55581;46.718;7.690;2023-05-20T05:03:16;13.93;;;5.70;;
68608;SDS011;55581;46.718;7.690;2023-05-20T05:05:42;12.90;;;5.80;;
68608;SDS011;55581;46.718;7.690;2023-05-20T05:08:08;11.10;;;5.80;;
68608;SDS011;55581;46.718;7.690;2023-05-20T05:10:35;11.52;;;5.88;;
68608;SDS011;55581;46.718;7.690;2023-05-20T05:13:01;10.63;;;6.00;;
68608;SDS011;55581;46.718;7.690;2023-05-20T05:15:26;13.95;;;7.60;;
68608;SDS011;55581;46.718;7.690;2023-05-20T05:17:52;14.87;;;7.37;;
68608;SDS011;55581;46.718;7.690;2023-05-20T05:20:18;12.77;;;6.97;;
68608;SDS011;55581;46.718;7.690;2023-05-20T05:22:44;10.47;;;6.13;;
68608;SDS011;55581;46.718;7.690;2023-05-20T05:25:09;12.82;;;6.50;;
68608;SDS011;55581;46.718;7.690;2023-05-20T05:27:35;11.27;;;6.50;;
68608;SDS011;55581;46.718;7.690;2023-05-20T05:30:03;13.17;;;7.50;;
68608;SDS011;55581;46.718;7.690;2023-05-20T05:32:29;11.52;;;6.78;;
68608;SDS011;55581;46.718;7.690;2023-05-20T05:34:55;13.63;;;6.27;;
68608;SDS011;55581;46.718;7.690;2023-05-20T05:37:20;13.37;;;7.60;;
68608;SDS011;55581;46.718;7.690;2023-05-20T05:39:46;11.53;;;7.47;;
68608;SDS011;55581;46.718;7.690;2023-05-20T05:42:12;11.52;;;6.90;;
68608;SDS011;55581;46.718;7.690;2023-05-20T05:44:37;12.50;;;7.20;;
68608;SDS011;55581;46.718;7.690;2023-05-20T05:47:05;10.90;;;6.43;;
68608;SDS011;55581;46.718;7.690;2023-05-20T05:49:31;18.63;;;8.50;;
68608;SDS011;55581;46.718;7.690;2023-05-20T05:51:59;12.57;;;7.27;;
68608;SDS011;55581;46.718;7.690;2023-05-20T05:54:25;13.07;;;7.80;;
68608;SDS011;55581;46.718;7.690;2023-05-20T05:56:51;14.07;;;7.93;;
68608;SDS011;55581;46.718;7.690;2023-05-20T05:59:16;12.52;;;6.88;;
68608;SDS011;55581;46.718;7.690;2023-05-20T06:01:43;12.13;;;7.03;;
68608;SDS011;55581;46.718;7.690;2023-05-20T06:04:08;12.47;;;7.47;;
68608;SDS011;55581;46.718;7.690;2023-05-20T06:06:33;12.32;;;7.13;;
68608;SDS011;55581;46.718;7.690;2023-05-20T06:09:01;14.50;;;7.80;;
68608;SDS011;55581;46.718;7.690;2023-05-20T06:11:26;11.65;;;7.03;;
68608;SDS011;55581;46.718;7.690;2023-05-20T06:13:52;12.53;;;6.40;;
68608;SDS011;55581;46.718;7.690;2023-05-20T06:16:17;14.80;;;7.53;;
68608;SDS011;55581;46.718;7.690;2023-05-20T06:18:44;11.83;;;6.33;;
68608;SDS011;55581;46.718;7.690;2023-05-20T06:21:14;13.38;;;6.57;;
68608;SDS011;55581;46.718;7.690;2023-05-20T06:23:40;13.60;;;7.43;;
68608;SDS011;55581;46.718;7.690;2023-05-20T06:26:05;13.00;;;6.70;;
68608;SDS011;55581;46.718;7.690;2023-05-20T06:28:31;10.17;;;6.10;;
68608;SDS011;55581;46.718;7.690;2023-05-20T06:30:56;12.38;;;5.63;;
68608;SDS011;55581;46.718;7.690;2023-05-20T06:33:22;15.00;;;5.93;;
68608;SDS011;55581;46.718;7.690;2023-05-20T06:35:54;12.23;;;5.72;;
68608;SDS011;55581;46.718;7.690;2023-05-20T06:38:20;10.03;;;5.50;;
68608;SDS011;55581;46.718;7.690;2023-05-20T06:40:49;14.00;;;6.60;;
68608;SDS011;55581;46.718;7.690;2023-05-20T06:43:15;12.77;;;7.63;;
68608;SDS011;55581;46.718;7.690;2023-05-20T06:45:41;11.20;;;6.50;;
68608;SDS011;55581;46.718;7.690;2023-05-20T06:48:07;10.52;;;6.53;;
68608;SDS011;55581;46.718;7.690;2023-05-20T06:50:35;11.97;;;5.97;;
68608;SDS011;55581;46.718;7.690;2023-05-20T06:53:00;14.15;;;7.22;;
68608;SDS011;55581;46.718;7.690;2023-05-20T06:55:26;12.40;;;6.50;;
68608;SDS011;55581;46.718;7.690;2023-05-20T06:57:51;10.90;;;7.10;;
68608;SDS011;55581;46.718;7.690;2023-05-20T07:00:16;12.47;;;7.03;;
68608;SDS011;55581;46.718;7.690;2023-05-20T07:02:42;11.73;;;7.20;;
68608;SDS011;55581;46.718;7.690;2023-05-20T07:05:08;13.17;;;7.00;;
68608;SDS011;55581;46.718;7.690;2023-05-20T07:07:34;11.52;;;6.07;;
68608;SDS011;55581;46.718;7.690;2023-05-20T07:10:00;12.17;;;5.87;;
68608;SDS011;55581;46.718;7.690;2023-05-20T07:12:26;10.90;;;5.78;;
68608;SDS011;55581;46.718;7.690;2023-05-20T07:14:51;12.63;;;6.13;;
68608;SDS011;55581;46.718;7.690;2023-05-20T07:17:17;12.38;;;6.32;;
68608;SDS011;55581;46.718;7.690;2023-05-20T07:19:42;11.27;;;6.17;;
68608;SDS011;55581;46.718;7.690;2023-05-20T07:22:08;12.37;;;6.60;;
68608;SDS011;55581;46.718;7.690;2023-05-20T07:24:36;11.50;;;6.47;;
68608;SDS011;55581;46.718;7.690;2023-05-20T07:27:02;11.45;;;6.40;;
68608;SDS011;55581;46.718;7.690;2023-05-20T07:29:29;11.10;;;6.82;;
68608;SDS011;55581;46.718;7.690;2023-05-20T07:31:55;14.07;;;6.93;;
68608;SDS011;55581;46.718;7.690;2023-05-20T07:34:20;12.52;;;5.97;;
68608;SDS011;55581;46.718;7.690;2023-05-20T07:36:48;11.77;;;6.93;;
68608;SDS011;55581;46.718;7.690;2023-05-20T07:39:15;13.25;;;6.03;;
68608;SDS011;55581;46.718;7.690;2023-05-20T07:41:40;9.47;;;5.20;;
68608;SDS011;55581;46.718;7.690;2023-05-20T07:44:06;9.73;;;5.88;;
68608;SDS011;55581;46.718;7.690;2023-05-20T07:46:36;10.53;;;5.93;;
68608;SDS011;55581;46.718;7.690;2023-05-20T07:49:02;10.38;;;5.30;;
68608;SDS011;55581;46.718;7.690;2023-05-20T07:51:28;9.25;;;5.07;;
68608;SDS011;55581;46.718;7.690;2023-05-20T07:53:53;6.97;;;3.90;;
68608;SDS011;55581;46.718;7.690;2023-05-20T07:56:19;7.17;;;3.87;;
68608;SDS011;55581;46.718;7.690;2023-05-20T07:58:51;9.40;;;4.47;;
68608;SDS011;55581;46.718;7.690;2023-05-20T08:01:18;8.57;;;4.70;;
68608;SDS011;55581;46.718;7.690;2023-05-20T08:03:44;9.40;;;4.30;;
68608;SDS011;55581;46.718;7.690;2023-05-20T08:06:10;7.63;;;4.43;;
68608;SDS011;55581;46.718;7.690;2023-05-20T08:08:36;9.53;;;5.13;;
68608;SDS011;55581;46.718;7.690;2023-05-20T08:11:04;9.40;;;4.70;;
68608;SDS011;55581;46.718;7.690;2023-05-20T08:13:32;10.07;;;5.03;;
68608;SDS011;55581;46.718;7.690;2023-05-20T08:15:57;8.50;;;5.10;;
68608;SDS011;55581;46.718;7.690;2023-05-20T08:18:23;9.05;;;4.80;;
68608;SDS011;55581;46.718;7.690;2023-05-20T08:20:49;7.63;;;4.17;;
68608;SDS011;55581;46.718;7.690;2023-05-20T08:23:16;7.68;;;4.50;;
68608;SDS011;55581;46.718;7.690;2023-05-20T08:25:42;7.47;;;4.27;;
68608;SDS011;55581;46.718;7.690;2023-05-20T08:28:07;9.45;;;4.57;;
68608;SDS011;55581;46.718;7.690;2023-05-20T08:30:33;8.50;;;5.17;;
68608;SDS011;55581;46.718;7.690;2023-05-20T08:32:58;9.27;;;4.97;;
68608;SDS011;55581;46.718;7.690;2023-05-20T08:35:24;7.97;;;5.00;;
68608;SDS011;55581;46.718;7.690;2023-05-20T08:37:50;9.95;;;5.40;;
68608;SDS011;55581;46.718;7.690;2023-05-20T08:40:19;9.30;;;5.07;;
68608;SDS011;55581;46.718;7.690;2023-05-20T08:42:46;9.85;;;5.22;;
68608;SDS011;55581;46.718;7.690;2023-05-20T08:45:14;10.68;;;5.60;;
68608;SDS011;55581;46.718;7.690;2023-05-20T08:47:42;10.50;;;6.07;;
68608;SDS011;55581;46.718;7.690;2023-05-20T08:50:09;10.45;;;5.25;;
68608;SDS011;55581;46.718;7.690;2023-05-20T08:52:36;9.47;;;4.97;;
68608;SDS011;55581;46.718;7.690;2023-05-20T08:55:06;8.98;;;4.72;;
68608;SDS011;55581;46.718;7.690;2023-05-20T08:57:33;7.32;;;4.35;;
68608;SDS011;55581;46.718;7.690;2023-05-20T09:00:01;8.80;;;4.55;;
68608;SDS011;55581;46.718;7.690;2023-05-20T09:02:35;7.57;;;4.05;;
68608;SDS011;55581;46.718;7.690;2023-05-20T09:05:02;7.40;;;3.70;;
68608;SDS011;55581;46.718;7.690;2023-05-20T09:07:29;7.35;;;4.22;;
68608;SDS011;55581;46.718;7.690;2023-05-20T09:09:55;7.18;;;3.90;;
68608;SDS011;55581;46.718;7.690;2023-05-20T09:12:21;7.80;;;4.03;;
68608;SDS011;55581;46.718;7.690;2023-05-20T09:14:50;10.43;;;5.27;;
68608;SDS011;55581;46.718;7.690;2023-05-20T09:17:15;11.67;;;5.73;;
68608;SDS011;55581;46.718;7.690;2023-05-20T09:19:42;10.13;;;5.10;;
68608;SDS011;55581;46.718;7.690;2023-05-20T09:22:07;7.30;;;4.37;;
68608;SDS011;55581;46.718;7.690;2023-05-20T09:24:33;9.23;;;4.72;;
68608;SDS011;55581;46.718;7.690;2023-05-20T09:26:58;9.00;;;4.83;;
68608;SDS011;55581;46.718;7.690;2023-05-20T09:29:24;8.63;;;4.20;;
68608;SDS011;55581;46.718;7.690;2023-05-20T09:31:51;7.72;;;4.43;;
68608;SDS011;55581;46.718;7.690;2023-05-20T09:34:18;7.68;;;4.43;;
68608;SDS011;55581;46.718;7.690;2023-05-20T09:36:47;11.52;;;4.70;;
68608;SDS011;55581;46.718;7.690;2023-05-20T09:39:15;9.83;;;3.93;;
68608;SDS011;55581;46.718;7.690;2023-05-20T09:44:36;7.22;;;4.13;;
68608;SDS011;55581;46.718;7.690;2023-05-20T09:47:03;7.72;;;4.20;;
68608;SDS011;55581;46.718;7.690;2023-05-20T09:49:31;8.45;;;4.65;;
68608;SDS011;55581;46.718;7.690;2023-05-20T09:51:57;9.77;;;4.77;;
68608;SDS011;55581;46.718;7.690;2023-05-20T09:54:25;8.52;;;4.40;;
68608;SDS011;55581;46.718;7.690;2023-05-20T09:56:53;8.13;;;5.10;;
68608;SDS011;55581;46.718;7.690;2023-05-20T09:59:21;7.20;;;4.53;;
68608;SDS011;55581;46.718;7.690;2023-05-20T10:01:48;7.97;;;4.90;;
68608;SDS011;55581;46.718;7.690;2023-05-20T10:04:14;7.90;;;4.60;;
68608;SDS011;55581;46.718;7.690;2023-05-20T10:06:49;7.80;;;4.93;;
68608;SDS011;55581;46.718;7.690;2023-05-20T10:14:49;8.80;;;5.40;;
68608;SDS011;55581;46.718;7.690;2023-05-20T10:17:43;7.80;;;4.70;;
68608;SDS011;55581;46.718;7.690;2023-05-20T10:20:10;7.33;;;3.97;;
68608;SDS011;55581;46.718;7.690;2023-05-20T10:22:36;7.80;;;4.00;;
68608;SDS011;55581;46.718;7.690;2023-05-20T10:25:08;8.40;;;4.40;;
68608;SDS011;55581;46.718;7.690;2023-05-20T10:27:46;14.73;;;4.68;;
68608;SDS011;55581;46.718;7.690;2023-05-20T10:30:14;7.63;;;3.90;;
68608;SDS011;55581;46.718;7.690;2023-05-20T10:32:47;7.17;;;4.47;;
68608;SDS011;55581;46.718;7.690;2023-05-20T10:35:21;7.43;;;4.18;;
68608;SDS011;55581;46.718;7.690;2023-05-20T10:37:50;7.05;;;4.10;;
68608;SDS011;55581;46.718;7.690;2023-05-20T10:40:19;6.60;;;4.05;;
68608;SDS011;55581;46.718;7.690;2023-05-20T10:42:46;6.78;;;3.90;;
68608;SDS011;55581;46.718;7.690;2023-05-20T10:45:28;8.30;;;3.60;;
68608;SDS011;55581;46.718;7.690;2023-05-20T10:47:57;7.35;;;3.95;;
68608;SDS011;55581;46.718;7.690;2023-05-20T10:50:26;5.75;;;3.45;;
68608;SDS011;55581;46.718;7.690;2023-05-20T10:53:03;6.22;;;3.75;;
68608;SDS011;55581;46.718;7.690;2023-05-20T10:55:36;6.20;;;3.55;;
68608;SDS011;55581;46.718;7.690;2023-05-20T10:58:04;6.80;;;3.43;;
68608;SDS011;55581;46.718;7.690;2023-05-20T11:00:35;6.60;;;3.33;;
68608;SDS011;55581;46.718;7.690;2023-05-20T11:03:01;6.63;;;3.28;;
68608;SDS011;55581;46.718;7.690;2023-05-20T11:05:28;7.15;;;3.67;;
68608;SDS011;55581;46.718;7.690;2023-05-20T11:08:01;6.03;;;3.60;;
68608;SDS011;55581;46.718;7.690;2023-05-20T11:10:33;7.80;;;3.43;;
68608;SDS011;55581;46.718;7.690;2023-05-20T11:13:03;6.53;;;3.33;;
68608;SDS011;55581;46.718;7.690;2023-05-20T11:15:32;5.72;;;3.47;;
68608;SDS011;55581;46.718;7.690;2023-05-20T11:18:00;5.70;;;3.40;;
68608;SDS011;55581;46.718;7.690;2023-05-20T11:20:26;7.22;;;3.70;;
68608;SDS011;55581;46.718;7.690;2023-05-20T11:22:54;6.57;;;3.07;;
68608;SDS011;55581;46.718;7.690;2023-05-20T11:25:21;6.00;;;3.58;;
68608;SDS011;55581;46.718;7.690;2023-05-20T11:27:48;6.32;;;3.40;;
68608;SDS011;55581;46.718;7.690;2023-05-20T11:30:14;7.50;;;3.23;;
68608;SDS011;55581;46.718;7.690;2023-05-20T11:32:43;6.03;;;3.22;;
68608;SDS011;55581;46.718;7.690;2023-05-20T11:35:21;5.95;;;3.25;;
68608;SDS011;55581;46.718;7.690;2023-05-20T11:37:53;5.97;;;3.30;;
68608;SDS011;55581;46.718;7.690;2023-05-20T11:40:27;8.55;;;3.90;;
68608;SDS011;55581;46.718;7.690;2023-05-20T11:42:55;5.90;;;3.37;;
68608;SDS011;55581;46.718;7.690;2023-05-20T11:45:21;6.50;;;3.33;;
68608;SDS011;55581;46.718;7.690;2023-05-20T11:50:32;6.38;;;3.65;;
68608;SDS011;55581;46.718;7.690;2023-05-20T11:53:04;6.80;;;3.75;;
68608;SDS011;55581;46.718;7.690;2023-05-20T11:55:30;6.63;;;3.90;;
68608;SDS011;55581;46.718;7.690;2023-05-20T11:57:57;6.97;;;3.35;;
68608;SDS011;55581;46.718;7.690;2023-05-20T12:00:24;6.55;;;3.63;;
68608;SDS011;55581;46.718;7.690;2023-05-20T12:02:49;12.07;;;4.10;;
68608;SDS011;55581;46.718;7.690;2023-05-20T12:05:17;6.23;;;3.20;;
68608;SDS011;55581;46.718;7.690;2023-05-20T12:07:45;7.53;;;3.90;;
68608;SDS011;55581;46.718;7.690;2023-05-20T12:10:10;6.33;;;3.60;;
68608;SDS011;55581;46.718;7.690;2023-05-20T12:12:37;7.80;;;3.75;;
68608;SDS011;55581;46.718;7.690;2023-05-20T12:15:03;6.72;;;3.80;;
68608;SDS011;55581;46.718;7.690;2023-05-20T12:17:30;7.77;;;4.23;;
68608;SDS011;55581;46.718;7.690;2023-05-20T12:19:56;8.30;;;4.45;;
68608;SDS011;55581;46.718;7.690;2023-05-20T12:22:21;8.63;;;4.90;;
68608;SDS011;55581;46.718;7.690;2023-05-20T12:24:47;8.35;;;5.00;;
68608;SDS011;55581;46.718;7.690;2023-05-20T12:27:14;9.10;;;5.50;;
68608;SDS011;55581;46.718;7.690;2023-05-20T12:29:39;10.90;;;5.20;;
68608;SDS011;55581;46.718;7.690;2023-05-20T12:32:05;11.20;;;5.57;;
68608;SDS011;55581;46.718;7.690;2023-05-20T12:34:31;9.70;;;5.23;;
68608;SDS011;55581;46.718;7.690;2023-05-20T12:36:57;8.80;;;5.18;;
68608;SDS011;55581;46.718;7.690;2023-05-20T12:39:22;10.73;;;5.45;;
68608;SDS011;55581;46.718;7.690;2023-05-20T12:41:47;9.53;;;4.87;;
68608;SDS011;55581;46.718;7.690;2023-05-20T12:44:14;9.82;;;5.20;;
68608;SDS011;55581;46.718;7.690;2023-05-20T12:46:40;9.90;;;5.63;;
68608;SDS011;55581;46.718;7.690;2023-05-20T12:49:06;9.30;;;4.95;;
68608;SDS011;55581;46.718;7.690;2023-05-20T12:51:31;8.57;;;4.83;;
68608;SDS011;55581;46.718;7.690;2023-05-20T12:53:59;8.52;;;4.70;;
68608;SDS011;55581;46.718;7.690;2023-05-20T12:56:25;7.85;;;5.28;;
68608;SDS011;55581;46.718;7.690;2023-05-20T12:58:51;7.80;;;4.70;;
68608;SDS011;55581;46.718;7.690;2023-05-20T13:01:16;7.72;;;4.75;;
68608;SDS011;55581;46.718;7.690;2023-05-20T13:03:46;8.30;;;4.43;;
68608;SDS011;55581;46.718;7.690;2023-05-20T13:06:11;9.32;;;4.80;;
68608;SDS011;55581;46.718;7.690;2023-05-20T13:08:37;7.17;;;4.27;;
68608;SDS011;55581;46.718;7.690;2023-05-20T13:11:02;9.17;;;4.63;;
68608;SDS011;55581;46.718;7.690;2023-05-20T13:13:28;8.40;;;4.07;;
68608;SDS011;55581;46.718;7.690;2023-05-20T13:15:55;8.17;;;3.90;;
68608;SDS011;55581;46.718;7.690;2023-05-20T13:18:21;8.35;;;4.43;;
68608;SDS011;55581;46.718;7.690;2023-05-20T13:20:46;7.07;;;4.07;;
68608;SDS011;55581;46.718;7.690;2023-05-20T13:23:12;9.00;;;4.35;;
68608;SDS011;55581;46.718;7.690;2023-05-20T13:25:38;7.97;;;4.20;;
68608;SDS011;55581;46.718;7.690;2023-05-20T13:28:04;6.77;;;3.83;;
68608;SDS011;55581;46.718;7.690;2023-05-20T13:30:31;8.07;;;4.03;;
68608;SDS011;55581;46.718;7.690;2023-05-20T13:32:56;6.43;;;3.85;;
68608;SDS011;55581;46.718;7.690;2023-05-20T13:35:21;8.40;;;4.00;;
68608;SDS011;55581;46.718;7.690;2023-05-20T13:37:47;7.10;;;4.33;;
68608;SDS011;55581;46.718;7.690;2023-05-20T13:40:12;7.60;;;4.60;;
68608;SDS011;55581;46.718;7.690;2023-05-20T13:42:42;7.75;;;4.65;;
68608;SDS011;55581;46.718;7.690;2023-05-20T13:45:08;8.13;;;4.73;;
68608;SDS011;55581;46.718;7.690;2023-05-20T13:47:34;7.45;;;4.07;;
68608;SDS011;55581;46.718;7.690;2023-05-20T13:49:59;8.10;;;4.40;;
68608;SDS011;55581;46.718;7.690;2023-05-20T13:52:25;6.53;;;3.53;;
68608;SDS011;55581;46.718;7.690;2023-05-20T13:54:51;6.53;;;4.03;;
68608;SDS011;55581;46.718;7.690;2023-05-20T13:57:17;6.90;;;4.20;;
68608;SDS011;55581;46.718;7.690;2023-05-20T13:59:42;7.03;;;4.20;;
68608;SDS011;55581;46.718;7.690;2023-05-20T14:02:07;8.63;;;4.10;;
68608;SDS011;55581;46.718;7.690;2023-05-20T14:04:34;8.48;;;4.75;;
68608;SDS011;55581;46.718;7.690;2023-05-20T14:07:04;8.20;;;4.53;;
68608;SDS011;55581;46.718;7.690;2023-05-20T14:09:31;7.77;;;4.20;;
68608;SDS011;55581;46.718;7.690;2023-05-20T14:11:57;7.55;;;4.40;;
68608;SDS011;55581;46.718;7.690;2023-05-20T14:14:25;7.03;;;4.13;;
68608;SDS011;55581;46.718;7.690;2023-05-20T14:16:51;6.70;;;4.20;;
68608;SDS011;55581;46.718;7.690;2023-05-20T14:19:17;7.40;;;4.37;;
68608;SDS011;55581;46.718;7.690;2023-05-20T14:21:42;6.55;;;3.83;;
68608;SDS011;55581;46.718;7.690;2023-05-20T14:24:07;7.17;;;4.30;;
68608;SDS011;55581;46.718;7.690;2023-05-20T14:26:33;9.40;;;4.60;;
68608;SDS011;55581;46.718;7.690;2023-05-20T14:28:59;6.77;;;3.83;;
68608;SDS011;55581;46.718;7.690;2023-05-20T14:31:26;6.43;;;4.05;;
68608;SDS011;55581;46.718;7.690;2023-05-20T14:33:52;7.57;;;4.37;;
68608;SDS011;55581;46.718;7.690;2023-05-20T14:36:17;8.05;;;4.43;;
68608;SDS011;55581;46.718;7.690;2023-05-20T14:38:43;7.50;;;4.03;;
68608;SDS011;55581;46.718;7.690;2023-05-20T14:41:11;7.13;;;4.20;;
68608;SDS011;55581;46.718;7.690;2023-05-20T14:43:39;7.25;;;4.38;;
68608;SDS011;55581;46.718;7.690;2023-05-20T14:46:04;6.77;;;3.97;;
68608;SDS011;55581;46.718;7.690;2023-05-20T14:48:30;10.13;;;5.43;;
68608;SDS011;55581;46.718;7.690;2023-05-20T14:50:55;8.20;;;4.80;;